createdAt,value
2022-12-11T00:01:10.583Z,5.30
2022-12-11T00:03:15.854Z,5.30
2022-12-11T00:05:18.032Z,5.30
2022-12-11T00:07:19.668Z,5.30
2022-12-11T00:09:21.293Z,5.30
2022-12-11T00:11:23.153Z,5.20
2022-12-11T00:13:24.796Z,5.20
2022-12-11T00:15:26.625Z,5.20
2022-12-11T00:17:28.327Z,5.20
2022-12-11T00:19:29.985Z,5.20
2022-12-11T00:21:31.803Z,5.20
2022-12-11T00:23:34.398Z,5.20
2022-12-11T00:25:40.414Z,5.20
2022-12-11T00:27:42.148Z,5.20
2022-12-11T00:29:43.916Z,5.20
2022-12-11T00:31:45.713Z,5.20
2022-12-11T00:33:50.379Z,5.20
2022-12-11T00:35:52.034Z,5.20
2022-12-11T00:37:54.348Z,5.20
2022-12-11T00:39:56.058Z,5.10
2022-12-11T00:41:58.342Z,5.20
2022-12-11T00:44:00.004Z,5.20
2022-12-11T00:46:01.866Z,5.20
2022-12-11T00:48:03.738Z,5.20
2022-12-11T00:50:05.672Z,5.20
2022-12-11T00:52:07.347Z,5.20
2022-12-11T00:54:09.020Z,5.20
2022-12-11T00:56:15.737Z,5.20
2022-12-11T00:58:17.533Z,5.20
2022-12-11T01:00:19.267Z,5.20
2022-12-11T01:02:20.947Z,5.20
2022-12-11T01:04:23.193Z,5.20
2022-12-11T01:06:25.629Z,5.20
2022-12-11T01:08:28.472Z,5.20
2022-12-11T01:10:30.656Z,5.20
2022-12-11T01:12:32.335Z,5.20
2022-12-11T01:14:33.976Z,5.20
2022-12-11T01:16:35.684Z,5.20
2022-12-11T01:18:38.011Z,5.20
2022-12-11T01:20:40.260Z,5.20
2022-12-11T01:22:41.931Z,5.20
2022-12-11T01:24:44.181Z,5.20
2022-12-11T01:26:45.963Z,5.20
2022-12-11T01:28:51.664Z,5.20
2022-12-11T01:30:53.517Z,5.20
2022-12-11T01:32:58.418Z,5.20
2022-12-11T01:35:00.328Z,5.20
2022-12-11T01:37:01.981Z,5.20
2022-12-11T01:39:03.685Z,5.20
2022-12-11T01:41:05.492Z,5.20
2022-12-11T01:43:10.186Z,5.20
2022-12-11T01:45:14.822Z,5.20
2022-12-11T01:47:16.960Z,5.20
2022-12-11T01:49:20.302Z,5.20
2022-12-11T01:51:22.519Z,5.30
2022-12-11T01:53:28.050Z,5.30
2022-12-11T01:55:29.740Z,5.30
2022-12-11T01:57:31.399Z,5.30
2022-12-11T01:59:34.311Z,5.30
2022-12-11T02:01:47.858Z,5.30
2022-12-11T02:03:50.779Z,5.30
2022-12-11T02:05:52.666Z,5.30
2022-12-11T02:07:57.506Z,5.30
2022-12-11T02:09:59.166Z,5.30
2022-12-11T02:12:03.081Z,5.30
2022-12-11T02:14:27.794Z,5.30
2022-12-11T02:16:37.776Z,5.30
2022-12-11T02:18:45.509Z,5.30
2022-12-11T02:20:59.266Z,5.30
2022-12-11T02:23:13.365Z,5.30
2022-12-11T02:25:22.240Z,5.30
2022-12-11T02:27:44.176Z,5.30
2022-12-11T02:29:50.211Z,5.30
2022-12-11T02:31:55.175Z,5.30
2022-12-11T02:34:03.013Z,5.40
2022-12-11T02:36:05.288Z,5.30
2022-12-11T02:38:12.284Z,5.40
2022-12-11T02:40:15.493Z,5.40
2022-12-11T02:42:18.337Z,5.40
2022-12-11T02:44:24.207Z,5.40
2022-12-11T02:46:26.133Z,5.40
2022-12-11T02:48:27.791Z,5.40
2022-12-11T02:50:30.168Z,5.40
2022-12-11T02:52:32.430Z,5.40
2022-12-11T02:54:36.617Z,5.40
2022-12-11T02:56:42.023Z,5.40
2022-12-11T02:58:47.636Z,5.40
2022-12-11T03:00:49.441Z,5.40
2022-12-11T03:02:51.185Z,5.40
2022-12-11T03:04:52.955Z,5.40
2022-12-11T03:06:59.878Z,5.40
2022-12-11T03:09:01.795Z,5.40
2022-12-11T03:11:03.433Z,5.40
2022-12-11T03:13:05.162Z,5.40
2022-12-11T03:15:10.105Z,5.40
2022-12-11T03:17:32.203Z,5.40
2022-12-11T03:19:41.416Z,5.40
2022-12-11T03:21:43.027Z,5.40
2022-12-11T03:23:49.619Z,5.40
2022-12-11T03:26:00.020Z,5.40
2022-12-11T03:28:10.616Z,5.40
2022-12-11T03:30:17.457Z,5.40
2022-12-11T03:32:22.996Z,5.40
2022-12-11T03:34:27.963Z,5.40
2022-12-11T03:36:34.635Z,5.40
2022-12-11T03:38:37.849Z,5.40
2022-12-11T03:40:41.556Z,5.40
2022-12-11T03:42:44.920Z,5.30
2022-12-11T03:44:48.158Z,5.30
2022-12-11T03:46:50.642Z,5.40
2022-12-11T03:48:53.527Z,5.30
2022-12-11T03:50:55.976Z,5.30
2022-12-11T03:52:58.382Z,5.40
2022-12-11T03:55:01.070Z,5.40
2022-12-11T03:57:04.115Z,5.40
2022-12-11T03:59:05.775Z,5.40
2022-12-11T04:01:10.873Z,5.40
2022-12-11T04:03:15.955Z,5.40
2022-12-11T04:05:19.447Z,5.50
2022-12-11T04:07:21.302Z,5.50
2022-12-11T04:09:22.960Z,5.50
2022-12-11T04:11:36.695Z,5.50
2022-12-11T04:13:39.416Z,5.50
2022-12-11T04:15:41.141Z,5.50
2022-12-11T04:18:01.389Z,5.50
2022-12-11T04:20:22.605Z,5.60
2022-12-11T04:22:42.695Z,5.50
2022-12-11T04:24:44.342Z,5.60
2022-12-11T04:26:46.945Z,5.50
2022-12-11T04:28:48.952Z,5.60
2022-12-11T04:30:50.575Z,5.70
2022-12-11T04:32:52.790Z,5.60
2022-12-11T04:34:54.456Z,5.60
2022-12-11T04:36:56.062Z,5.60
2022-12-11T04:38:57.754Z,5.60
2022-12-11T04:40:59.966Z,5.70
2022-12-11T04:43:02.326Z,5.70
2022-12-11T04:45:04.449Z,5.70
2022-12-11T04:47:06.081Z,5.70
2022-12-11T04:49:10.806Z,5.70
2022-12-11T04:51:12.899Z,5.80
2022-12-11T04:53:14.525Z,5.80
2022-12-11T04:55:16.237Z,5.80
2022-12-11T04:57:17.961Z,5.80
2022-12-11T04:59:19.621Z,5.80
2022-12-11T05:01:22.361Z,5.70
2022-12-11T05:03:24.257Z,5.80
2022-12-11T05:05:25.980Z,5.70
2022-12-11T05:07:27.598Z,5.80
2022-12-11T05:09:29.644Z,5.80
2022-12-11T05:11:31.355Z,5.80
2022-12-11T05:13:33.162Z,5.80
2022-12-11T05:15:34.769Z,5.80
2022-12-11T05:17:36.467Z,5.70
2022-12-11T05:19:38.230Z,5.70
2022-12-11T05:21:39.905Z,5.70
2022-12-11T05:23:42.263Z,5.80
2022-12-11T05:25:44.327Z,5.70
2022-12-11T05:27:45.994Z,5.70
2022-12-11T05:29:47.690Z,5.70
2022-12-11T05:31:49.344Z,5.70
2022-12-11T05:33:51.191Z,5.70
2022-12-11T05:35:53.059Z,5.70
2022-12-11T05:37:54.701Z,5.60
2022-12-11T05:39:56.314Z,5.70
2022-12-11T05:41:57.983Z,5.70
2022-12-11T05:43:59.742Z,5.70
2022-12-11T05:46:10.405Z,5.70
2022-12-11T05:48:12.073Z,5.70
2022-12-11T05:50:13.758Z,5.70
2022-12-11T05:52:16.645Z,5.70
2022-12-11T05:54:18.735Z,5.70
2022-12-11T05:56:21.665Z,5.80
2022-12-11T05:58:23.273Z,5.70
2022-12-11T06:00:24.925Z,5.70
2022-12-11T06:02:26.638Z,5.80
2022-12-11T06:04:28.388Z,5.80
2022-12-11T06:06:30.123Z,5.80
2022-12-11T06:08:32.207Z,5.80
2022-12-11T06:10:33.918Z,5.80
2022-12-11T06:12:36.202Z,5.80
2022-12-11T06:14:38.208Z,5.70
2022-12-11T06:16:39.871Z,5.70
2022-12-11T06:18:42.829Z,5.70
2022-12-11T06:20:44.695Z,5.70
2022-12-11T06:22:46.413Z,5.70
2022-12-11T06:24:48.231Z,5.70
2022-12-11T06:26:49.893Z,5.70
2022-12-11T06:28:51.843Z,5.70
2022-12-11T06:30:53.504Z,5.70
2022-12-11T06:32:56.006Z,5.70
2022-12-11T06:35:00.403Z,5.70
2022-12-11T06:37:02.024Z,5.70
2022-12-11T06:39:03.762Z,5.70
2022-12-11T06:41:06.230Z,5.70
2022-12-11T06:43:07.943Z,5.70
2022-12-11T06:45:10.223Z,5.70
2022-12-11T06:47:12.355Z,5.70
2022-12-11T06:49:14.052Z,5.70
2022-12-11T06:51:17.101Z,5.70
2022-12-11T06:53:18.709Z,5.70
2022-12-11T06:55:20.427Z,5.70
2022-12-11T06:57:22.541Z,5.70
2022-12-11T06:59:24.300Z,5.70
2022-12-11T07:01:27.250Z,5.70
2022-12-11T07:03:29.221Z,5.80
2022-12-11T07:05:31.533Z,5.80
2022-12-11T07:07:33.160Z,5.80
2022-12-11T07:09:34.927Z,5.80
2022-12-11T07:11:36.620Z,5.80
2022-12-11T07:13:38.308Z,5.80
2022-12-11T07:15:40.591Z,5.80
2022-12-11T07:17:42.419Z,5.80
2022-12-11T07:19:44.579Z,5.80
2022-12-11T07:21:46.732Z,5.80
2022-12-11T07:23:48.979Z,5.80
2022-12-11T07:25:50.818Z,5.80
2022-12-11T07:27:52.460Z,5.80
2022-12-11T07:29:55.488Z,5.80
2022-12-11T07:31:57.187Z,5.80
2022-12-11T07:34:00.856Z,5.80
2022-12-11T07:36:03.519Z,5.80
2022-12-11T07:38:05.129Z,5.80
2022-12-11T07:40:07.929Z,5.80
2022-12-11T07:42:09.613Z,5.80
2022-12-11T07:44:11.564Z,5.80
2022-12-11T07:46:15.285Z,5.80
2022-12-11T07:48:17.007Z,5.80
2022-12-11T07:50:18.883Z,5.80
2022-12-11T07:52:20.568Z,5.80
2022-12-11T07:54:22.201Z,5.80
2022-12-11T07:56:24.093Z,5.90
2022-12-11T07:58:25.719Z,5.80
2022-12-11T08:00:27.422Z,5.80
2022-12-11T08:02:32.617Z,5.80
2022-12-11T08:04:37.384Z,5.80
2022-12-11T08:06:39.804Z,5.80
2022-12-11T08:08:41.992Z,5.90
2022-12-11T08:10:43.743Z,5.90
2022-12-11T08:12:45.364Z,5.80
2022-12-11T08:14:47.010Z,5.90
2022-12-11T08:16:48.891Z,5.90
2022-12-11T08:18:51.072Z,5.90
2022-12-11T08:20:52.691Z,5.90
2022-12-11T08:22:58.937Z,5.90
2022-12-11T08:25:00.911Z,5.90
2022-12-11T08:27:03.257Z,5.90
2022-12-11T08:29:04.916Z,6.00
2022-12-11T08:31:08.807Z,6.00
2022-12-11T08:33:10.495Z,6.00
2022-12-11T08:35:12.470Z,6.00
2022-12-11T08:37:14.260Z,6.00
2022-12-11T08:39:16.070Z,6.00
2022-12-11T08:41:18.999Z,6.00
2022-12-11T08:43:20.687Z,6.10
2022-12-11T08:45:22.430Z,6.00
2022-12-11T08:47:24.111Z,6.10
2022-12-11T08:49:32.742Z,6.10
2022-12-11T08:51:35.961Z,6.10
2022-12-11T08:53:38.835Z,6.10
2022-12-11T08:55:40.652Z,6.10
2022-12-11T08:57:42.391Z,6.10
2022-12-11T08:59:44.091Z,6.10
2022-12-11T09:01:45.894Z,6.10
2022-12-11T09:03:47.858Z,6.20
2022-12-11T09:05:49.601Z,6.10
2022-12-11T09:07:51.405Z,6.20
2022-12-11T09:09:56.007Z,6.20
2022-12-11T09:11:57.820Z,6.20
2022-12-11T09:14:05.130Z,6.20
2022-12-11T09:16:10.735Z,6.20
2022-12-11T09:18:12.434Z,6.30
2022-12-11T09:20:14.160Z,6.20
2022-12-11T09:22:16.064Z,6.20
2022-12-11T09:24:17.782Z,6.20
2022-12-11T09:26:20.118Z,6.20
2022-12-11T09:28:21.932Z,6.20
2022-12-11T09:30:23.628Z,6.20
2022-12-11T09:32:25.292Z,6.20
2022-12-11T09:34:29.359Z,6.20
2022-12-11T09:36:31.615Z,6.20
2022-12-11T09:38:33.674Z,6.20
2022-12-11T09:40:39.763Z,6.20
2022-12-11T09:42:48.020Z,6.20
2022-12-11T09:44:52.792Z,6.20
2022-12-11T09:46:54.581Z,6.20
2022-12-11T09:48:56.622Z,6.20
2022-12-11T09:50:58.394Z,6.20
2022-12-11T09:53:06.035Z,6.20
2022-12-11T09:55:19.456Z,6.20
2022-12-11T09:57:24.125Z,6.20
2022-12-11T09:59:28.994Z,6.20
2022-12-11T10:01:38.008Z,6.20
2022-12-11T10:03:42.905Z,6.20
2022-12-11T10:05:44.565Z,6.20
2022-12-11T10:07:52.296Z,6.20
2022-12-11T10:10:03.598Z,6.20
2022-12-11T10:12:05.319Z,6.20
2022-12-11T10:14:07.031Z,6.20
2022-12-11T10:16:31.820Z,6.20
2022-12-11T10:18:34.008Z,6.20
2022-12-11T10:20:39.136Z,6.20
2022-12-11T10:22:41.027Z,6.20
2022-12-11T10:27:21.306Z,6.20
2022-12-11T10:29:22.979Z,6.20
2022-12-11T10:31:39.911Z,6.30
2022-12-11T10:33:46.548Z,6.30
2022-12-11T10:35:50.367Z,6.30
2022-12-11T10:37:55.498Z,6.30
2022-12-11T10:39:57.280Z,6.30
2022-12-11T10:41:59.135Z,6.30
2022-12-11T10:44:01.863Z,6.30
2022-12-11T10:46:04.442Z,6.30
2022-12-11T10:48:09.434Z,6.40
2022-12-11T10:50:24.777Z,6.40
2022-12-11T10:52:28.377Z,6.40
2022-12-11T10:54:32.196Z,6.40
2022-12-11T10:56:35.588Z,6.40
2022-12-11T10:58:39.632Z,6.40
2022-12-11T11:00:41.952Z,6.40
2022-12-11T11:02:45.172Z,6.50
2022-12-11T11:04:47.330Z,6.50
2022-12-11T11:06:49.840Z,6.50
2022-12-11T11:08:52.839Z,6.50
2022-12-11T11:10:55.959Z,6.50
2022-12-11T11:13:01.428Z,6.50
2022-12-11T11:15:10.432Z,6.50
2022-12-11T11:17:16.504Z,6.50
2022-12-11T11:19:19.904Z,6.60
2022-12-11T11:21:23.895Z,6.60
2022-12-11T11:23:26.043Z,6.50
2022-12-11T11:25:29.546Z,6.50
2022-12-11T11:27:35.214Z,6.50
2022-12-11T11:29:37.793Z,6.50
2022-12-11T11:31:39.613Z,6.50
2022-12-11T11:33:46.589Z,6.50
2022-12-11T11:36:07.680Z,6.50
2022-12-11T11:38:09.397Z,6.60
2022-12-11T11:40:24.197Z,6.60
2022-12-11T11:42:30.350Z,6.60
2022-12-11T11:44:38.873Z,6.60
2022-12-11T11:46:48.984Z,6.60
2022-12-11T11:48:56.558Z,6.60
2022-12-11T11:50:58.349Z,6.60
2022-12-11T11:53:06.000Z,6.60
2022-12-11T11:55:10.037Z,6.70
2022-12-11T11:57:17.899Z,6.70
2022-12-11T11:59:19.617Z,6.70
2022-12-11T12:01:21.466Z,6.70
2022-12-11T12:03:24.564Z,6.70
2022-12-11T12:05:34.069Z,6.70
2022-12-11T12:07:50.636Z,6.70
2022-12-11T12:09:58.356Z,6.70
2022-12-11T12:12:00.132Z,6.70
2022-12-11T12:14:50.475Z,6.70
2022-12-11T12:16:55.363Z,6.80
2022-12-11T12:19:11.185Z,6.80
2022-12-11T12:21:18.685Z,6.80
2022-12-11T12:23:36.671Z,6.80
2022-12-11T12:25:47.966Z,6.90
2022-12-11T12:28:08.154Z,6.90
2022-12-11T12:30:16.136Z,6.90
2022-12-11T12:32:25.714Z,6.90
2022-12-11T12:34:33.651Z,7.00
2022-12-11T12:36:38.439Z,7.00
2022-12-11T12:38:59.160Z,7.00
2022-12-11T12:41:06.808Z,7.00
2022-12-11T12:43:20.768Z,7.00
2022-12-11T12:45:26.448Z,7.10
2022-12-11T12:47:30.626Z,7.10
2022-12-11T12:49:32.369Z,7.10
2022-12-11T12:51:34.145Z,7.10
2022-12-11T12:53:36.931Z,7.20
2022-12-11T12:55:39.370Z,7.20
2022-12-11T12:57:50.655Z,7.20
2022-12-11T12:59:55.615Z,7.20
2022-12-11T13:01:59.575Z,7.20
2022-12-11T13:04:05.734Z,7.20
2022-12-11T13:06:10.974Z,7.20
2022-12-11T13:08:13.227Z,7.20
2022-12-11T13:10:27.531Z,7.20
2022-12-11T13:12:43.502Z,7.20
2022-12-11T13:14:55.895Z,7.20
2022-12-11T13:17:26.818Z,7.20
2022-12-11T13:19:29.460Z,7.20
2022-12-11T13:21:33.928Z,7.30
2022-12-11T13:23:35.958Z,7.20
2022-12-11T13:25:48.400Z,7.30
2022-12-11T13:27:50.181Z,7.20
2022-12-11T13:29:52.734Z,7.20
2022-12-11T13:31:58.859Z,7.20
2022-12-11T13:34:21.677Z,7.20
2022-12-11T13:36:26.516Z,7.10
2022-12-11T13:38:28.214Z,7.20
2022-12-11T13:40:33.960Z,7.10
2022-12-11T13:42:49.203Z,7.10
2022-12-11T13:44:51.299Z,7.10
2022-12-11T13:46:54.277Z,7.10
2022-12-11T13:49:00.778Z,7.10
2022-12-11T13:51:03.121Z,7.10
2022-12-11T13:53:05.268Z,7.10
2022-12-11T13:55:16.786Z,7.00
2022-12-11T13:57:23.309Z,7.10
2022-12-11T13:59:27.168Z,7.00
2022-12-11T14:01:33.848Z,7.00
2022-12-11T14:03:35.822Z,7.10
2022-12-11T14:05:37.505Z,7.00
2022-12-11T14:07:46.621Z,7.10
2022-12-11T14:09:48.433Z,7.10
2022-12-11T14:11:56.497Z,7.10
2022-12-11T14:13:59.939Z,7.10
2022-12-11T14:16:02.675Z,7.10
2022-12-11T14:18:04.946Z,7.10
2022-12-11T14:20:07.569Z,7.10
2022-12-11T14:22:17.060Z,7.00
2022-12-11T14:24:18.770Z,7.00
2022-12-11T14:26:23.195Z,7.00
2022-12-11T14:28:27.621Z,7.00
2022-12-11T14:30:31.636Z,7.00
2022-12-11T14:32:36.584Z,7.00
2022-12-11T14:34:44.351Z,7.00
2022-12-11T14:36:46.570Z,7.00
2022-12-11T14:38:51.904Z,7.00
2022-12-11T14:40:56.436Z,6.90
2022-12-11T14:43:03.053Z,6.90
2022-12-11T14:45:13.976Z,6.90
2022-12-11T14:47:29.170Z,6.90
2022-12-11T14:49:33.671Z,6.80
2022-12-11T14:51:39.726Z,6.80
2022-12-11T14:53:43.478Z,6.80
2022-12-11T14:55:46.757Z,6.80
2022-12-11T14:57:49.920Z,6.80
2022-12-11T14:59:53.078Z,6.80
2022-12-11T15:02:01.918Z,6.80
2022-12-11T15:04:22.107Z,6.80
2022-12-11T15:06:26.136Z,6.80
2022-12-11T15:08:27.867Z,6.80
2022-12-11T15:10:37.335Z,6.70
2022-12-11T15:12:43.940Z,6.70
2022-12-11T15:14:48.588Z,6.70
2022-12-11T15:16:51.624Z,6.70
2022-12-11T15:18:54.253Z,6.70
2022-12-11T15:20:57.479Z,6.70
2022-12-11T15:23:01.671Z,6.70
2022-12-11T15:25:03.841Z,6.70
2022-12-11T15:27:05.925Z,6.70
2022-12-11T15:29:25.095Z,6.70
2022-12-11T15:31:28.480Z,6.70
2022-12-11T15:33:34.308Z,6.60
2022-12-11T15:35:37.272Z,6.60
2022-12-11T15:37:40.143Z,6.70
2022-12-11T15:39:41.837Z,6.60
2022-12-11T15:41:43.518Z,6.60
2022-12-11T15:43:45.323Z,6.70
2022-12-11T15:45:47.188Z,6.60
2022-12-11T15:47:49.442Z,6.60
2022-12-11T15:49:53.883Z,6.60
2022-12-11T15:51:55.617Z,6.60
2022-12-11T15:53:57.344Z,6.60
2022-12-11T15:55:59.485Z,6.60
2022-12-11T15:58:03.209Z,6.60
2022-12-11T16:00:06.566Z,6.70
2022-12-11T16:02:13.047Z,6.60
2022-12-11T16:04:14.879Z,6.60
2022-12-11T16:06:16.638Z,6.60
2022-12-11T16:08:20.385Z,6.60
2022-12-11T16:10:22.315Z,6.60
2022-12-11T16:12:24.767Z,6.60
2022-12-11T16:14:26.452Z,6.50
2022-12-11T16:16:28.166Z,6.50
2022-12-11T16:18:29.798Z,6.50
2022-12-11T16:20:31.743Z,6.50
2022-12-11T16:22:33.390Z,6.50
2022-12-11T16:24:35.590Z,6.50
2022-12-11T16:26:37.333Z,6.50
2022-12-11T16:28:39.086Z,6.50
2022-12-11T16:30:40.925Z,6.50
2022-12-11T16:32:43.934Z,6.50
2022-12-11T16:34:45.729Z,6.50
2022-12-11T16:36:47.436Z,6.50
2022-12-11T16:38:53.458Z,6.40
2022-12-11T16:40:59.629Z,6.50
2022-12-11T16:43:01.297Z,6.40
2022-12-11T16:45:05.034Z,6.40
2022-12-11T16:47:06.886Z,6.50
2022-12-11T16:49:08.538Z,6.40
2022-12-11T16:51:10.249Z,6.50
2022-12-11T16:53:14.545Z,6.50
2022-12-11T16:55:16.300Z,6.40
2022-12-11T16:57:17.971Z,6.40
2022-12-11T16:59:19.725Z,6.50
2022-12-11T17:01:21.462Z,6.50
2022-12-11T17:03:23.267Z,6.50
2022-12-11T17:05:25.077Z,6.50
2022-12-11T17:07:26.917Z,6.60
2022-12-11T17:09:28.728Z,6.50
2022-12-11T17:11:31.086Z,6.50
2022-12-11T17:13:36.164Z,6.50
2022-12-11T17:15:42.095Z,6.50
2022-12-11T17:17:44.097Z,6.50
2022-12-11T17:19:45.947Z,6.50
2022-12-11T17:21:51.608Z,6.50
2022-12-11T17:23:53.840Z,6.50
2022-12-11T17:25:55.559Z,6.60
2022-12-11T17:27:57.296Z,6.50
2022-12-11T17:29:59.099Z,6.50
2022-12-11T17:32:03.121Z,6.50
2022-12-11T17:34:04.947Z,6.50
2022-12-11T17:36:07.042Z,6.50
2022-12-11T17:38:08.748Z,6.50
2022-12-11T17:40:10.856Z,6.50
2022-12-11T17:42:12.617Z,6.50
2022-12-11T17:44:14.482Z,6.50
2022-12-11T17:46:16.394Z,6.50
2022-12-11T17:48:18.591Z,6.50
2022-12-11T17:50:20.562Z,6.50
2022-12-11T17:52:22.339Z,6.50
2022-12-11T17:54:24.288Z,6.50
2022-12-11T17:56:26.279Z,6.50
2022-12-11T17:58:29.816Z,6.50
2022-12-11T18:00:33.428Z,6.50
2022-12-11T18:02:35.435Z,6.50
2022-12-11T18:04:38.270Z,6.50
2022-12-11T18:06:40.194Z,6.40
2022-12-11T18:08:42.188Z,6.50
2022-12-11T18:10:44.472Z,6.50
2022-12-11T18:12:46.285Z,6.50
2022-12-11T18:14:48.031Z,6.50
2022-12-11T18:16:49.938Z,6.50
2022-12-11T18:18:53.075Z,6.50
2022-12-11T18:20:56.839Z,6.50
2022-12-11T18:22:58.664Z,6.50
2022-12-11T18:25:09.441Z,6.50
2022-12-11T18:27:15.250Z,6.50
2022-12-11T18:29:18.524Z,6.50
2022-12-11T18:31:21.750Z,6.50
2022-12-11T18:33:23.819Z,6.50
2022-12-11T18:35:25.592Z,6.50
2022-12-11T18:37:28.285Z,6.50
2022-12-11T18:39:30.213Z,6.50
2022-12-11T18:41:31.955Z,6.60
2022-12-11T18:43:34.105Z,6.60
2022-12-11T18:45:39.751Z,6.50
2022-12-11T18:47:41.637Z,6.50
2022-12-11T18:49:43.510Z,6.50
2022-12-11T18:51:45.445Z,6.50
2022-12-11T18:53:47.262Z,6.60
2022-12-11T18:55:49.530Z,6.50
2022-12-11T18:57:51.323Z,6.50
2022-12-11T18:59:53.642Z,6.50
2022-12-11T19:01:56.354Z,6.50
2022-12-11T19:04:03.222Z,6.50
2022-12-11T19:06:09.789Z,6.50
2022-12-11T19:08:12.557Z,6.50
2022-12-11T19:10:14.498Z,6.50
2022-12-11T19:12:17.276Z,6.50
2022-12-11T19:14:19.088Z,6.50
2022-12-11T19:16:22.151Z,6.50
2022-12-11T19:18:24.651Z,6.50
2022-12-11T19:20:48.050Z,6.50
2022-12-11T19:22:48.319Z,6.50
2022-12-11T19:24:50.056Z,6.50
2022-12-11T19:26:51.912Z,6.50
2022-12-11T19:28:53.905Z,6.50
2022-12-11T19:30:55.907Z,6.40
2022-12-11T19:32:58.848Z,6.40
2022-12-11T19:35:01.397Z,6.50
2022-12-11T19:37:03.143Z,6.40
2022-12-11T19:39:09.834Z,6.40
2022-12-11T19:41:18.941Z,6.40
2022-12-11T19:43:20.707Z,6.40
2022-12-11T19:45:22.494Z,6.50
2022-12-11T19:47:24.340Z,6.40
2022-12-11T19:49:26.189Z,6.50
2022-12-11T19:51:38.759Z,6.50
2022-12-11T19:53:41.544Z,6.40
2022-12-11T19:55:53.716Z,6.40
2022-12-11T19:57:55.511Z,6.50
2022-12-11T19:59:57.591Z,6.50
2022-12-11T20:01:59.567Z,6.50
2022-12-11T20:04:03.692Z,6.40
2022-12-11T20:06:06.493Z,6.50
2022-12-11T20:08:35.722Z,6.50
2022-12-11T20:10:30.647Z,6.50
2022-12-11T20:12:32.678Z,6.50
2022-12-11T20:14:37.654Z,6.50
2022-12-11T20:19:06.789Z,6.50
2022-12-11T20:21:09.540Z,6.40
2022-12-11T20:23:11.262Z,6.40
2022-12-11T20:25:13.249Z,6.40
2022-12-11T20:27:15.227Z,6.40
2022-12-11T20:29:17.149Z,6.40
2022-12-11T20:31:22.809Z,6.40
2022-12-11T20:33:24.805Z,6.50
2022-12-11T20:35:27.239Z,6.40
2022-12-11T20:37:29.195Z,6.40
2022-12-11T20:39:32.035Z,6.40
2022-12-11T20:41:33.894Z,6.40
2022-12-11T20:43:36.626Z,6.40
2022-12-11T20:45:39.023Z,6.40
2022-12-11T20:47:40.846Z,6.40
2022-12-11T20:49:42.581Z,6.40
2022-12-11T20:51:44.365Z,6.50
2022-12-11T20:53:47.556Z,6.40
2022-12-11T20:55:49.315Z,6.40
2022-12-11T20:57:50.999Z,6.40
2022-12-11T20:59:52.890Z,6.40
2022-12-11T21:01:54.785Z,6.40
2022-12-11T21:03:57.118Z,6.30
2022-12-11T21:05:58.978Z,6.30
2022-12-11T21:08:00.844Z,6.30
2022-12-11T21:10:02.914Z,6.30
2022-12-11T21:12:05.576Z,6.30
2022-12-11T21:14:07.396Z,6.30
2022-12-11T21:16:09.839Z,6.30
2022-12-11T21:18:11.660Z,6.20
2022-12-11T21:20:13.410Z,6.20
2022-12-11T21:22:15.175Z,6.20
2022-12-11T21:24:18.752Z,6.30
2022-12-11T21:26:20.531Z,6.20
2022-12-11T21:28:22.404Z,6.20
2022-12-11T21:30:24.093Z,6.20
2022-12-11T21:32:25.870Z,6.20
2022-12-11T21:34:27.782Z,6.10
2022-12-11T21:36:29.489Z,6.10
2022-12-11T21:38:31.212Z,6.10
2022-12-11T21:40:34.328Z,6.10
2022-12-11T21:42:36.076Z,6.10
2022-12-11T21:46:59.580Z,6.10
2022-12-11T21:49:01.318Z,6.10
2022-12-11T21:51:10.324Z,6.20
2022-12-11T21:53:12.036Z,6.10
2022-12-11T21:55:14.140Z,6.10
2022-12-11T21:57:18.998Z,6.10
2022-12-11T21:59:24.505Z,6.10
2022-12-11T22:01:32.002Z,6.10
2022-12-11T22:03:33.715Z,6.10
2022-12-11T22:05:35.383Z,6.10
2022-12-11T22:07:37.156Z,6.10
2022-12-11T22:09:38.858Z,6.10
2022-12-11T22:11:41.889Z,6.10
2022-12-11T22:13:45.164Z,6.10
2022-12-11T22:15:46.784Z,6.10
2022-12-11T22:17:48.578Z,6.10
2022-12-11T22:19:52.037Z,6.10
2022-12-11T22:21:53.734Z,6.10
2022-12-11T22:23:55.424Z,6.10
2022-12-11T22:25:57.234Z,6.20
2022-12-11T22:27:58.894Z,6.10
2022-12-11T22:30:00.654Z,6.10
2022-12-11T22:32:02.760Z,6.10
2022-12-11T22:34:04.529Z,6.10
2022-12-11T22:36:06.599Z,6.10
2022-12-11T22:38:08.998Z,6.10
2022-12-11T22:40:10.875Z,6.10
2022-12-11T22:42:12.596Z,6.10
2022-12-11T22:44:15.516Z,6.10
2022-12-11T22:46:19.557Z,6.10
2022-12-11T22:48:21.320Z,6.10
2022-12-11T22:50:23.122Z,6.10
2022-12-11T22:52:24.812Z,6.10
2022-12-11T22:54:27.776Z,6.10
2022-12-11T22:56:29.474Z,6.10
2022-12-11T22:58:31.563Z,6.10
2022-12-11T23:00:33.239Z,6.10
2022-12-11T23:02:34.962Z,6.10
2022-12-11T23:04:36.612Z,6.10
2022-12-11T23:06:38.608Z,6.20
2022-12-11T23:08:40.920Z,6.10
2022-12-11T23:10:42.632Z,6.20
2022-12-11T23:12:44.373Z,6.10
2022-12-11T23:14:46.055Z,6.10
2022-12-11T23:16:47.764Z,6.10
2022-12-11T23:18:49.547Z,6.10
2022-12-11T23:20:51.229Z,6.10
2022-12-11T23:22:52.937Z,6.10
2022-12-11T23:24:54.619Z,6.20
2022-12-11T23:26:56.309Z,6.10
2022-12-11T23:28:58.796Z,6.10
2022-12-11T23:31:00.717Z,6.10
2022-12-11T23:33:02.392Z,6.10
2022-12-11T23:35:04.669Z,6.10
2022-12-11T23:37:06.488Z,6.10
2022-12-11T23:39:08.209Z,6.20
2022-12-11T23:41:11.441Z,6.20
2022-12-11T23:43:13.122Z,6.20
2022-12-11T23:45:15.057Z,6.20
2022-12-11T23:47:17.013Z,6.20
2022-12-11T23:49:18.715Z,6.20
2022-12-11T23:51:21.418Z,6.20
2022-12-11T23:53:23.123Z,6.10
2022-12-11T23:55:25.355Z,6.20
2022-12-11T23:57:27.116Z,6.20
2022-12-11T23:59:28.838Z,6.10
